Terminal Aerodrome Forecast
Issued by NWS

Home | Current Version | Previous Version | Text Only | Print | Product List | Glossary Off
Versions: 1 2 3 4 5 6 7 8 9 10 11 12 13 14

483
FTUS43 KOAX 160903 AAA
TAFCDR
TAF AMD
KCDR 160903Z 1609/1706 27004KT P6SM BKN020
     FM161500 33008KT P6SM BKN100=

USA.gov is the U.S. government's official web portal to all federal, state and local government web resources and services.